sensor_id;sensor_type;location;lat;lon;timestamp;P1;durP1;ratioP1;P2;durP2;ratioP2
351;SDS011;164;50.784;6.496;2024-01-15T00:01:21;14.45;;;8.85;;
351;SDS011;164;50.784;6.496;2024-01-15T00:03:48;14.35;;;8.75;;
351;SDS011;164;50.784;6.496;2024-01-15T00:06:17;12.93;;;7.05;;
351;SDS011;164;50.784;6.496;2024-01-15T00:08:45;18.55;;;9.25;;
351;SDS011;164;50.784;6.496;2024-01-15T00:11:13;11.38;;;7.38;;
351;SDS011;164;50.784;6.496;2024-01-15T00:13:41;14.65;;;7.93;;
351;SDS011;164;50.784;6.496;2024-01-15T00:16:08;11.43;;;7.88;;
351;SDS011;164;50.784;6.496;2024-01-15T00:18:37;12.25;;;5.97;;
351;SDS011;164;50.784;6.496;2024-01-15T00:21:04;9.95;;;6.80;;
351;SDS011;164;50.784;6.496;2024-01-15T00:23:33;15.07;;;8.30;;
351;SDS011;164;50.784;6.496;2024-01-15T00:26:01;11.07;;;6.70;;
351;SDS011;164;50.784;6.496;2024-01-15T00:28:29;8.07;;;6.53;;
351;SDS011;164;50.784;6.496;2024-01-15T00:30:57;15.23;;;9.02;;
351;SDS011;164;50.784;6.496;2024-01-15T00:33:24;5.78;;;4.10;;
351;SDS011;164;50.784;6.496;2024-01-15T00:35:51;15.38;;;7.25;;
351;SDS011;164;50.784;6.496;2024-01-15T00:38:19;12.73;;;7.95;;
351;SDS011;164;50.784;6.496;2024-01-15T00:40:48;11.27;;;6.93;;
351;SDS011;164;50.784;6.496;2024-01-15T00:43:15;11.98;;;7.90;;
351;SDS011;164;50.784;6.496;2024-01-15T00:45:44;12.75;;;7.85;;
351;SDS011;164;50.784;6.496;2024-01-15T00:48:13;12.13;;;8.25;;
351;SDS011;164;50.784;6.496;2024-01-15T00:50:40;13.43;;;7.00;;
351;SDS011;164;50.784;6.496;2024-01-15T00:53:08;12.60;;;8.52;;
351;SDS011;164;50.784;6.496;2024-01-15T00:55:35;16.13;;;7.80;;
351;SDS011;164;50.784;6.496;2024-01-15T00:58:05;15.88;;;8.75;;
351;SDS011;164;50.784;6.496;2024-01-15T01:00:33;16.05;;;8.20;;
351;SDS011;164;50.784;6.496;2024-01-15T01:03:00;12.20;;;8.35;;
351;SDS011;164;50.784;6.496;2024-01-15T01:05:28;18.63;;;6.78;;
351;SDS011;164;50.784;6.496;2024-01-15T01:07:55;12.55;;;7.95;;
351;SDS011;164;50.784;6.496;2024-01-15T01:10:22;15.90;;;8.07;;
351;SDS011;164;50.784;6.496;2024-01-15T01:12:49;10.90;;;7.30;;
351;SDS011;164;50.784;6.496;2024-01-15T01:15:19;13.05;;;7.15;;
351;SDS011;164;50.784;6.496;2024-01-15T01:17:46;12.07;;;8.75;;
351;SDS011;164;50.784;6.496;2024-01-15T01:20:14;13.02;;;8.25;;
351;SDS011;164;50.784;6.496;2024-01-15T01:22:41;16.25;;;8.23;;
351;SDS011;164;50.784;6.496;2024-01-15T01:25:09;12.30;;;7.35;;
351;SDS011;164;50.784;6.496;2024-01-15T01:27:36;12.30;;;8.00;;
351;SDS011;164;50.784;6.496;2024-01-15T01:30:04;11.20;;;6.88;;
351;SDS011;164;50.784;6.496;2024-01-15T01:32:33;22.20;;;8.73;;
351;SDS011;164;50.784;6.496;2024-01-15T01:35:00;15.60;;;9.95;;
351;SDS011;164;50.784;6.496;2024-01-15T01:37:28;13.85;;;9.20;;
351;SDS011;164;50.784;6.496;2024-01-15T01:39:55;17.00;;;9.10;;
351;SDS011;164;50.784;6.496;2024-01-15T01:42:23;15.15;;;8.13;;
351;SDS011;164;50.784;6.496;2024-01-15T01:44:50;10.20;;;7.47;;
351;SDS011;164;50.784;6.496;2024-01-15T01:47:17;12.07;;;7.70;;
351;SDS011;164;50.784;6.496;2024-01-15T01:49:47;15.35;;;7.80;;
351;SDS011;164;50.784;6.496;2024-01-15T01:52:14;15.15;;;8.90;;
351;SDS011;164;50.784;6.496;2024-01-15T01:54:42;10.63;;;6.28;;
351;SDS011;164;50.784;6.496;2024-01-15T01:57:09;15.02;;;8.05;;
351;SDS011;164;50.784;6.496;2024-01-15T01:59:37;15.85;;;9.20;;
351;SDS011;164;50.784;6.496;2024-01-15T02:02:05;13.57;;;8.18;;
351;SDS011;164;50.784;6.496;2024-01-15T02:04:32;14.65;;;7.70;;
351;SDS011;164;50.784;6.496;2024-01-15T02:07:03;12.68;;;9.20;;
351;SDS011;164;50.784;6.496;2024-01-15T02:09:30;19.60;;;8.88;;
351;SDS011;164;50.784;6.496;2024-01-15T02:11:58;12.32;;;7.45;;
351;SDS011;164;50.784;6.496;2024-01-15T02:14:25;12.52;;;8.52;;
351;SDS011;164;50.784;6.496;2024-01-15T02:16:52;14.20;;;9.15;;
351;SDS011;164;50.784;6.496;2024-01-15T02:19:20;16.83;;;8.30;;
351;SDS011;164;50.784;6.496;2024-01-15T02:21:47;20.52;;;10.63;;
351;SDS011;164;50.784;6.496;2024-01-15T02:24:16;15.15;;;9.18;;
351;SDS011;164;50.784;6.496;2024-01-15T02:26:44;12.55;;;9.85;;
351;SDS011;164;50.784;6.496;2024-01-15T02:29:11;16.40;;;9.65;;
351;SDS011;164;50.784;6.496;2024-01-15T02:31:39;19.15;;;9.50;;
351;SDS011;164;50.784;6.496;2024-01-15T02:34:06;11.50;;;8.43;;
351;SDS011;164;50.784;6.496;2024-01-15T02:36:37;18.95;;;8.38;;
351;SDS011;164;50.784;6.496;2024-01-15T02:39:04;19.17;;;10.27;;
351;SDS011;164;50.784;6.496;2024-01-15T02:41:35;13.95;;;9.95;;
351;SDS011;164;50.784;6.496;2024-01-15T02:44:03;15.70;;;9.18;;
351;SDS011;164;50.784;6.496;2024-01-15T02:46:30;15.38;;;8.20;;
351;SDS011;164;50.784;6.496;2024-01-15T02:48:58;16.77;;;8.20;;
351;SDS011;164;50.784;6.496;2024-01-15T02:51:30;13.80;;;8.57;;
351;SDS011;164;50.784;6.496;2024-01-15T02:53:58;17.63;;;10.13;;
351;SDS011;164;50.784;6.496;2024-01-15T02:56:30;15.48;;;9.65;;
351;SDS011;164;50.784;6.496;2024-01-15T02:59:05;20.90;;;9.52;;
351;SDS011;164;50.784;6.496;2024-01-15T03:01:48;21.08;;;9.90;;
351;SDS011;164;50.784;6.496;2024-01-15T03:04:17;12.07;;;8.40;;
351;SDS011;164;50.784;6.496;2024-01-15T03:06:45;17.08;;;10.20;;
351;SDS011;164;50.784;6.496;2024-01-15T03:09:12;15.88;;;10.48;;
351;SDS011;164;50.784;6.496;2024-01-15T03:11:40;15.32;;;8.60;;
351;SDS011;164;50.784;6.496;2024-01-15T03:14:10;15.90;;;10.48;;
351;SDS011;164;50.784;6.496;2024-01-15T03:16:38;17.52;;;10.05;;
351;SDS011;164;50.784;6.496;2024-01-15T03:19:07;14.02;;;9.77;;
351;SDS011;164;50.784;6.496;2024-01-15T03:21:35;18.65;;;9.65;;
351;SDS011;164;50.784;6.496;2024-01-15T03:24:04;14.75;;;10.57;;
351;SDS011;164;50.784;6.496;2024-01-15T03:26:32;19.52;;;11.85;;
351;SDS011;164;50.784;6.496;2024-01-15T03:29:00;16.33;;;11.45;;
351;SDS011;164;50.784;6.496;2024-01-15T03:31:31;16.25;;;9.90;;
351;SDS011;164;50.784;6.496;2024-01-15T03:34:00;14.00;;;10.45;;
351;SDS011;164;50.784;6.496;2024-01-15T03:36:41;19.10;;;10.30;;
351;SDS011;164;50.784;6.496;2024-01-15T03:39:09;15.43;;;8.95;;
351;SDS011;164;50.784;6.496;2024-01-15T03:41:36;15.10;;;9.18;;
351;SDS011;164;50.784;6.496;2024-01-15T03:44:09;15.02;;;10.13;;
351;SDS011;164;50.784;6.496;2024-01-15T03:46:39;12.25;;;8.40;;
351;SDS011;164;50.784;6.496;2024-01-15T03:49:09;11.60;;;8.48;;
351;SDS011;164;50.784;6.496;2024-01-15T03:51:39;13.85;;;9.10;;
351;SDS011;164;50.784;6.496;2024-01-15T03:54:06;16.90;;;9.32;;
351;SDS011;164;50.784;6.496;2024-01-15T03:56:34;11.73;;;8.27;;
351;SDS011;164;50.784;6.496;2024-01-15T03:59:01;11.73;;;7.28;;
351;SDS011;164;50.784;6.496;2024-01-15T04:01:30;13.98;;;7.43;;
351;SDS011;164;50.784;6.496;2024-01-15T04:04:15;9.85;;;7.07;;
351;SDS011;164;50.784;6.496;2024-01-15T04:06:42;14.60;;;8.32;;
351;SDS011;164;50.784;6.496;2024-01-15T04:09:11;14.15;;;10.90;;
351;SDS011;164;50.784;6.496;2024-01-15T04:11:39;12.88;;;7.50;;
351;SDS011;164;50.784;6.496;2024-01-15T04:14:07;12.70;;;8.52;;
351;SDS011;164;50.784;6.496;2024-01-15T04:16:34;14.23;;;8.63;;
351;SDS011;164;50.784;6.496;2024-01-15T04:19:02;15.88;;;8.65;;
351;SDS011;164;50.784;6.496;2024-01-15T04:21:32;14.43;;;9.85;;
351;SDS011;164;50.784;6.496;2024-01-15T04:24:03;13.07;;;8.50;;
351;SDS011;164;50.784;6.496;2024-01-15T04:26:32;17.25;;;7.68;;
351;SDS011;164;50.784;6.496;2024-01-15T04:29:00;16.90;;;8.90;;
351;SDS011;164;50.784;6.496;2024-01-15T04:31:28;13.52;;;9.95;;
351;SDS011;164;50.784;6.496;2024-01-15T04:33:55;14.75;;;8.48;;
351;SDS011;164;50.784;6.496;2024-01-15T04:36:23;9.82;;;8.52;;
351;SDS011;164;50.784;6.496;2024-01-15T04:38:52;16.25;;;10.30;;
351;SDS011;164;50.784;6.496;2024-01-15T04:41:20;15.07;;;11.43;;
351;SDS011;164;50.784;6.496;2024-01-15T04:43:47;14.88;;;9.10;;
351;SDS011;164;50.784;6.496;2024-01-15T04:46:15;15.60;;;7.97;;
351;SDS011;164;50.784;6.496;2024-01-15T04:48:42;26.00;;;10.57;;
351;SDS011;164;50.784;6.496;2024-01-15T04:51:10;14.18;;;9.35;;
351;SDS011;164;50.784;6.496;2024-01-15T04:53:44;17.38;;;9.85;;
351;SDS011;164;50.784;6.496;2024-01-15T04:56:13;12.35;;;7.95;;
351;SDS011;164;50.784;6.496;2024-01-15T04:58:40;16.50;;;10.70;;
351;SDS011;164;50.784;6.496;2024-01-15T05:01:08;14.10;;;8.73;;
351;SDS011;164;50.784;6.496;2024-01-15T05:03:35;14.10;;;9.15;;
351;SDS011;164;50.784;6.496;2024-01-15T05:06:03;15.27;;;8.60;;
351;SDS011;164;50.784;6.496;2024-01-15T05:08:30;13.88;;;9.93;;
351;SDS011;164;50.784;6.496;2024-01-15T05:10:58;13.02;;;8.63;;
351;SDS011;164;50.784;6.496;2024-01-15T05:13:27;15.30;;;9.05;;
351;SDS011;164;50.784;6.496;2024-01-15T05:15:55;14.52;;;8.95;;
351;SDS011;164;50.784;6.496;2024-01-15T05:18:24;17.77;;;11.18;;
351;SDS011;164;50.784;6.496;2024-01-15T05:20:52;13.25;;;8.15;;
351;SDS011;164;50.784;6.496;2024-01-15T05:23:21;22.80;;;10.25;;
351;SDS011;164;50.784;6.496;2024-01-15T05:26:04;17.95;;;9.80;;
351;SDS011;164;50.784;6.496;2024-01-15T06:21:02;15.50;;;9.02;;
351;SDS011;164;50.784;6.496;2024-01-15T06:23:29;10.32;;;8.10;;
351;SDS011;164;50.784;6.496;2024-01-15T06:25:58;11.35;;;7.22;;
351;SDS011;164;50.784;6.496;2024-01-15T06:28:25;13.88;;;9.57;;
351;SDS011;164;50.784;6.496;2024-01-15T06:30:52;11.07;;;7.88;;
351;SDS011;164;50.784;6.496;2024-01-15T06:33:19;13.77;;;9.80;;
351;SDS011;164;50.784;6.496;2024-01-15T06:35:47;13.27;;;9.05;;
351;SDS011;164;50.784;6.496;2024-01-15T06:38:16;14.30;;;8.40;;
351;SDS011;164;50.784;6.496;2024-01-15T06:40:44;17.35;;;7.75;;
351;SDS011;164;50.784;6.496;2024-01-15T06:43:13;16.33;;;9.60;;
351;SDS011;164;50.784;6.496;2024-01-15T06:45:41;15.13;;;9.60;;
351;SDS011;164;50.784;6.496;2024-01-15T06:48:08;16.35;;;10.00;;
351;SDS011;164;50.784;6.496;2024-01-15T06:50:37;15.23;;;8.60;;
351;SDS011;164;50.784;6.496;2024-01-15T06:53:05;11.38;;;8.60;;
351;SDS011;164;50.784;6.496;2024-01-15T06:55:33;14.93;;;9.50;;
351;SDS011;164;50.784;6.496;2024-01-15T06:58:01;12.55;;;8.68;;
351;SDS011;164;50.784;6.496;2024-01-15T07:01:20;12.40;;;9.15;;
351;SDS011;164;50.784;6.496;2024-01-15T07:03:47;10.93;;;7.65;;
351;SDS011;164;50.784;6.496;2024-01-15T07:06:15;11.75;;;8.70;;
351;SDS011;164;50.784;6.496;2024-01-15T07:08:42;15.25;;;8.25;;
351;SDS011;164;50.784;6.496;2024-01-15T07:11:11;12.32;;;7.68;;
351;SDS011;164;50.784;6.496;2024-01-15T07:13:38;16.30;;;8.48;;
351;SDS011;164;50.784;6.496;2024-01-15T07:16:06;17.38;;;9.15;;
351;SDS011;164;50.784;6.496;2024-01-15T07:18:33;18.95;;;9.90;;
351;SDS011;164;50.784;6.496;2024-01-15T07:21:01;15.38;;;8.50;;
351;SDS011;164;50.784;6.496;2024-01-15T07:23:30;14.07;;;8.82;;
351;SDS011;164;50.784;6.496;2024-01-15T07:25:58;12.25;;;8.10;;
351;SDS011;164;50.784;6.496;2024-01-15T07:28:28;13.40;;;9.25;;
351;SDS011;164;50.784;6.496;2024-01-15T07:30:56;15.80;;;9.20;;
351;SDS011;164;50.784;6.496;2024-01-15T07:33:24;14.65;;;9.73;;
351;SDS011;164;50.784;6.496;2024-01-15T07:35:52;15.95;;;8.95;;
351;SDS011;164;50.784;6.496;2024-01-15T07:38:19;11.55;;;6.40;;
351;SDS011;164;50.784;6.496;2024-01-15T07:40:47;15.65;;;9.75;;
351;SDS011;164;50.784;6.496;2024-01-15T07:43:15;18.60;;;10.50;;
351;SDS011;164;50.784;6.496;2024-01-15T07:45:44;14.65;;;9.82;;
351;SDS011;164;50.784;6.496;2024-01-15T07:48:11;15.40;;;10.23;;
351;SDS011;164;50.784;6.496;2024-01-15T07:50:39;19.67;;;10.77;;
351;SDS011;164;50.784;6.496;2024-01-15T07:53:06;13.65;;;7.47;;
351;SDS011;164;50.784;6.496;2024-01-15T07:55:33;18.90;;;8.68;;
351;SDS011;164;50.784;6.496;2024-01-15T07:58:01;13.52;;;8.77;;
351;SDS011;164;50.784;6.496;2024-01-15T08:00:28;13.05;;;8.80;;
351;SDS011;164;50.784;6.496;2024-01-15T08:02:57;14.00;;;9.95;;
351;SDS011;164;50.784;6.496;2024-01-15T08:05:25;19.50;;;10.52;;
351;SDS011;164;50.784;6.496;2024-01-15T08:07:53;14.68;;;8.98;;
351;SDS011;164;50.784;6.496;2024-01-15T08:10:20;11.40;;;9.27;;
351;SDS011;164;50.784;6.496;2024-01-15T08:12:47;12.30;;;8.00;;
351;SDS011;164;50.784;6.496;2024-01-15T08:15:15;19.80;;;8.90;;
351;SDS011;164;50.784;6.496;2024-01-15T08:17:43;17.42;;;10.35;;
351;SDS011;164;50.784;6.496;2024-01-15T08:20:13;12.35;;;8.10;;
351;SDS011;164;50.784;6.496;2024-01-15T08:22:41;11.00;;;7.65;;
351;SDS011;164;50.784;6.496;2024-01-15T08:25:08;12.27;;;7.15;;
351;SDS011;164;50.784;6.496;2024-01-15T08:27:36;12.30;;;7.75;;
351;SDS011;164;50.784;6.496;2024-01-15T08:30:03;12.55;;;8.60;;
351;SDS011;164;50.784;6.496;2024-01-15T08:32:31;12.13;;;7.68;;
351;SDS011;164;50.784;6.496;2024-01-15T08:35:01;14.35;;;8.55;;
351;SDS011;164;50.784;6.496;2024-01-15T08:37:30;14.20;;;8.50;;
351;SDS011;164;50.784;6.496;2024-01-15T08:39:58;11.57;;;6.85;;
351;SDS011;164;50.784;6.496;2024-01-15T08:42:25;9.48;;;5.65;;
351;SDS011;164;50.784;6.496;2024-01-15T08:44:56;10.80;;;6.95;;
351;SDS011;164;50.784;6.496;2024-01-15T08:47:23;8.43;;;6.32;;
351;SDS011;164;50.784;6.496;2024-01-15T08:49:51;8.77;;;6.97;;
351;SDS011;164;50.784;6.496;2024-01-15T08:52:19;6.70;;;5.35;;
351;SDS011;164;50.784;6.496;2024-01-15T08:54:59;9.90;;;5.60;;
351;SDS011;164;50.784;6.496;2024-01-15T08:57:32;13.52;;;7.57;;
351;SDS011;164;50.784;6.496;2024-01-15T09:00:00;11.27;;;6.38;;
351;SDS011;164;50.784;6.496;2024-01-15T09:02:28;6.93;;;4.97;;
351;SDS011;164;50.784;6.496;2024-01-15T09:04:56;9.05;;;5.95;;
351;SDS011;164;50.784;6.496;2024-01-15T09:07:24;6.90;;;5.53;;
351;SDS011;164;50.784;6.496;2024-01-15T09:09:52;5.20;;;4.63;;
351;SDS011;164;50.784;6.496;2024-01-15T09:12:21;7.15;;;5.25;;
351;SDS011;164;50.784;6.496;2024-01-15T09:14:48;7.82;;;5.18;;
351;SDS011;164;50.784;6.496;2024-01-15T09:17:15;7.05;;;5.68;;
351;SDS011;164;50.784;6.496;2024-01-15T09:19:43;7.63;;;5.18;;
351;SDS011;164;50.784;6.496;2024-01-15T09:22:12;6.82;;;5.63;;
351;SDS011;164;50.784;6.496;2024-01-15T09:24:40;7.15;;;5.78;;
351;SDS011;164;50.784;6.496;2024-01-15T09:27:07;9.68;;;5.53;;
351;SDS011;164;50.784;6.496;2024-01-15T09:29:36;7.82;;;4.82;;
351;SDS011;164;50.784;6.496;2024-01-15T09:32:06;6.30;;;4.47;;
351;SDS011;164;50.784;6.496;2024-01-15T09:34:33;8.52;;;5.72;;
351;SDS011;164;50.784;6.496;2024-01-15T09:37:01;5.45;;;4.60;;
351;SDS011;164;50.784;6.496;2024-01-15T09:39:29;8.18;;;5.63;;
351;SDS011;164;50.784;6.496;2024-01-15T09:41:57;8.50;;;5.28;;
351;SDS011;164;50.784;6.496;2024-01-15T09:44:24;9.32;;;5.35;;
351;SDS011;164;50.784;6.496;2024-01-15T09:46:54;10.20;;;6.50;;
351;SDS011;164;50.784;6.496;2024-01-15T09:49:22;9.88;;;5.95;;
351;SDS011;164;50.784;6.496;2024-01-15T09:51:49;6.13;;;5.32;;
351;SDS011;164;50.784;6.496;2024-01-15T09:54:16;5.82;;;4.95;;
351;SDS011;164;50.784;6.496;2024-01-15T09:56:45;8.50;;;6.10;;
351;SDS011;164;50.784;6.496;2024-01-15T09:59:13;7.63;;;5.00;;
351;SDS011;164;50.784;6.496;2024-01-15T10:01:41;5.85;;;5.15;;
351;SDS011;164;50.784;6.496;2024-01-15T10:04:11;6.97;;;4.32;;
351;SDS011;164;50.784;6.496;2024-01-15T10:06:38;6.75;;;5.38;;
351;SDS011;164;50.784;6.496;2024-01-15T10:09:06;5.72;;;5.43;;
351;SDS011;164;50.784;6.496;2024-01-15T10:11:34;4.57;;;4.00;;
351;SDS011;164;50.784;6.496;2024-01-15T10:14:02;5.07;;;4.45;;
351;SDS011;164;50.784;6.496;2024-01-15T10:16:30;5.68;;;4.05;;
351;SDS011;164;50.784;6.496;2024-01-15T10:18:57;7.50;;;5.47;;
351;SDS011;164;50.784;6.496;2024-01-15T10:21:26;5.30;;;3.97;;
351;SDS011;164;50.784;6.496;2024-01-15T10:23:53;7.28;;;4.75;;
351;SDS011;164;50.784;6.496;2024-01-15T10:26:24;8.18;;;5.18;;
351;SDS011;164;50.784;6.496;2024-01-15T10:28:51;5.78;;;4.90;;
351;SDS011;164;50.784;6.496;2024-01-15T10:31:18;6.78;;;4.60;;
351;SDS011;164;50.784;6.496;2024-01-15T10:33:47;6.40;;;5.10;;
351;SDS011;164;50.784;6.496;2024-01-15T10:36:15;7.65;;;5.60;;
351;SDS011;164;50.784;6.496;2024-01-15T10:38:44;8.27;;;5.63;;
351;SDS011;164;50.784;6.496;2024-01-15T10:41:12;3.45;;;3.05;;
351;SDS011;164;50.784;6.496;2024-01-15T10:43:39;6.82;;;5.13;;
351;SDS011;164;50.784;6.496;2024-01-15T10:46:07;5.60;;;4.53;;
351;SDS011;164;50.784;6.496;2024-01-15T10:48:35;7.22;;;5.63;;
351;SDS011;164;50.784;6.496;2024-01-15T10:51:03;9.07;;;6.00;;
351;SDS011;164;50.784;6.496;2024-01-15T10:53:36;8.07;;;6.20;;
351;SDS011;164;50.784;6.496;2024-01-15T10:56:06;13.18;;;5.57;;
351;SDS011;164;50.784;6.496;2024-01-15T10:58:34;8.70;;;5.60;;
351;SDS011;164;50.784;6.496;2024-01-15T11:01:01;8.13;;;5.88;;
351;SDS011;164;50.784;6.496;2024-01-15T11:03:30;10.20;;;6.25;;
351;SDS011;164;50.784;6.496;2024-01-15T11:05:57;8.63;;;5.78;;
351;SDS011;164;50.784;6.496;2024-01-15T11:08:25;7.13;;;4.88;;
351;SDS011;164;50.784;6.496;2024-01-15T11:10:53;9.23;;;6.28;;
351;SDS011;164;50.784;6.496;2024-01-15T11:16:09;6.07;;;4.63;;
351;SDS011;164;50.784;6.496;2024-01-15T11:18:37;5.82;;;5.15;;
351;SDS011;164;50.784;6.496;2024-01-15T11:21:21;5.70;;;4.65;;
351;SDS011;164;50.784;6.496;2024-01-15T11:23:50;6.55;;;4.80;;
351;SDS011;164;50.784;6.496;2024-01-15T11:26:27;7.55;;;4.90;;
351;SDS011;164;50.784;6.496;2024-01-15T11:28:55;6.97;;;5.25;;
351;SDS011;164;50.784;6.496;2024-01-15T11:31:27;9.07;;;5.47;;
351;SDS011;164;50.784;6.496;2024-01-15T11:33:55;5.40;;;4.45;;
351;SDS011;164;50.784;6.496;2024-01-15T11:41:46;6.05;;;4.05;;
351;SDS011;164;50.784;6.496;2024-01-15T11:44:13;7.60;;;4.68;;
351;SDS011;164;50.784;6.496;2024-01-15T11:46:42;6.50;;;5.03;;
351;SDS011;164;50.784;6.496;2024-01-15T11:49:15;3.83;;;3.65;;
351;SDS011;164;50.784;6.496;2024-01-15T11:51:49;4.40;;;3.90;;
351;SDS011;164;50.784;6.496;2024-01-15T11:54:17;5.90;;;3.47;;
351;SDS011;164;50.784;6.496;2024-01-15T11:56:45;9.30;;;3.95;;
351;SDS011;164;50.784;6.496;2024-01-15T11:59:12;4.15;;;3.80;;
351;SDS011;164;50.784;6.496;2024-01-15T12:01:42;6.78;;;3.40;;
351;SDS011;164;50.784;6.496;2024-01-15T12:04:10;6.32;;;3.63;;
351;SDS011;164;50.784;6.496;2024-01-15T12:06:38;3.28;;;3.08;;
351;SDS011;164;50.784;6.496;2024-01-15T12:09:06;3.28;;;3.13;;
351;SDS011;164;50.784;6.496;2024-01-15T12:11:33;7.20;;;3.60;;
351;SDS011;164;50.784;6.496;2024-01-15T12:14:02;5.25;;;3.42;;
351;SDS011;164;50.784;6.496;2024-01-15T12:16:30;7.80;;;4.03;;
351;SDS011;164;50.784;6.496;2024-01-15T12:18:59;7.78;;;3.90;;
351;SDS011;164;50.784;6.496;2024-01-15T12:21:26;7.30;;;4.20;;
351;SDS011;164;50.784;6.496;2024-01-15T12:23:55;3.25;;;2.63;;
351;SDS011;164;50.784;6.496;2024-01-15T12:26:23;5.55;;;3.78;;
351;SDS011;164;50.784;6.496;2024-01-15T12:28:51;3.45;;;3.20;;
351;SDS011;164;50.784;6.496;2024-01-15T12:31:18;7.25;;;2.72;;
351;SDS011;164;50.784;6.496;2024-01-15T12:33:46;8.73;;;2.83;;
351;SDS011;164;50.784;6.496;2024-01-15T12:36:15;2.40;;;2.22;;
351;SDS011;164;50.784;6.496;2024-01-15T12:38:47;4.55;;;2.47;;
351;SDS011;164;50.784;6.496;2024-01-15T12:41:15;3.47;;;2.65;;
351;SDS011;164;50.784;6.496;2024-01-15T12:43:42;4.07;;;2.95;;
351;SDS011;164;50.784;6.496;2024-01-15T12:46:10;6.40;;;4.07;;
351;SDS011;164;50.784;6.496;2024-01-15T12:48:37;2.90;;;1.98;;
351;SDS011;164;50.784;6.496;2024-01-15T12:51:05;6.53;;;2.65;;
351;SDS011;164;50.784;6.496;2024-01-15T12:53:35;5.57;;;3.15;;
351;SDS011;164;50.784;6.496;2024-01-15T12:56:03;2.22;;;2.05;;
351;SDS011;164;50.784;6.496;2024-01-15T12:58:30;3.00;;;2.80;;
351;SDS011;164;50.784;6.496;2024-01-15T13:00:58;3.15;;;2.90;;
351;SDS011;164;50.784;6.496;2024-01-15T13:03:25;4.30;;;2.92;;
351;SDS011;164;50.784;6.496;2024-01-15T13:05:52;5.80;;;3.97;;
351;SDS011;164;50.784;6.496;2024-01-15T13:08:20;5.53;;;2.80;;
351;SDS011;164;50.784;6.496;2024-01-15T13:10:52;8.13;;;3.70;;
351;SDS011;164;50.784;6.496;2024-01-15T13:13:21;5.60;;;2.90;;
351;SDS011;164;50.784;6.496;2024-01-15T13:15:49;4.25;;;3.30;;
351;SDS011;164;50.784;6.496;2024-01-15T13:18:16;4.47;;;2.80;;
351;SDS011;164;50.784;6.496;2024-01-15T13:20:44;3.25;;;2.97;;
351;SDS011;164;50.784;6.496;2024-01-15T13:23:11;5.75;;;3.40;;
351;SDS011;164;50.784;6.496;2024-01-15T13:25:39;3.08;;;2.88;;
351;SDS011;164;50.784;6.496;2024-01-15T13:28:08;5.95;;;3.22;;
351;SDS011;164;50.784;6.496;2024-01-15T13:30:35;5.68;;;2.53;;
351;SDS011;164;50.784;6.496;2024-01-15T13:33:02;4.47;;;2.75;;
351;SDS011;164;50.784;6.496;2024-01-15T13:35:30;2.30;;;2.10;;
351;SDS011;164;50.784;6.496;2024-01-15T13:37:58;3.33;;;2.78;;
351;SDS011;164;50.784;6.496;2024-01-15T13:40:25;4.53;;;2.33;;
351;SDS011;164;50.784;6.496;2024-01-15T13:42:52;3.38;;;1.85;;
351;SDS011;164;50.784;6.496;2024-01-15T13:45:21;2.13;;;1.95;;
351;SDS011;164;50.784;6.496;2024-01-15T13:47:49;4.10;;;2.60;;
351;SDS011;164;50.784;6.496;2024-01-15T13:50:17;1.92;;;1.70;;
351;SDS011;164;50.784;6.496;2024-01-15T13:52:44;1.95;;;1.85;;
351;SDS011;164;50.784;6.496;2024-01-15T13:55:12;1.75;;;1.60;;
351;SDS011;164;50.784;6.496;2024-01-15T13:57:39;2.92;;;2.58;;
351;SDS011;164;50.784;6.496;2024-01-15T14:00:07;2.35;;;2.17;;
351;SDS011;164;50.784;6.496;2024-01-15T14:02:38;6.43;;;2.70;;
351;SDS011;164;50.784;6.496;2024-01-15T14:05:05;1.73;;;1.65;;
351;SDS011;164;50.784;6.496;2024-01-15T14:07:33;3.15;;;2.17;;
351;SDS011;164;50.784;6.496;2024-01-15T14:10:00;1.83;;;1.73;;
351;SDS011;164;50.784;6.496;2024-01-15T14:12:29;2.65;;;2.45;;
351;SDS011;164;50.784;6.496;2024-01-15T14:14:56;1.90;;;1.80;;
351;SDS011;164;50.784;6.496;2024-01-15T14:17:23;1.90;;;1.80;;
351;SDS011;164;50.784;6.496;2024-01-15T14:19:52;2.55;;;1.67;;
351;SDS011;164;50.784;6.496;2024-01-15T14:22:20;2.40;;;2.20;;
351;SDS011;164;50.784;6.496;2024-01-15T14:24:47;3.15;;;2.45;;
351;SDS011;164;50.784;6.496;2024-01-15T14:27:15;3.15;;;1.88;;
351;SDS011;164;50.784;6.496;2024-01-15T14:29:42;2.05;;;1.92;;
351;SDS011;164;50.784;6.496;2024-01-15T14:32:11;2.65;;;2.40;;
351;SDS011;164;50.784;6.496;2024-01-15T14:34:38;3.30;;;3.10;;
351;SDS011;164;50.784;6.496;2024-01-15T14:37:07;2.38;;;2.20;;
351;SDS011;164;50.784;6.496;2024-01-15T14:39:35;2.17;;;2.00;;
351;SDS011;164;50.784;6.496;2024-01-15T14:42:02;2.58;;;2.15;;
351;SDS011;164;50.784;6.496;2024-01-15T14:44:29;2.72;;;2.58;;
351;SDS011;164;50.784;6.496;2024-01-15T14:46:58;2.75;;;1.98;;
351;SDS011;164;50.784;6.496;2024-01-15T14:49:26;1.77;;;1.67;;
351;SDS011;164;50.784;6.496;2024-01-15T14:51:53;2.70;;;2.50;;
351;SDS011;164;50.784;6.496;2024-01-15T14:54:22;2.40;;;1.83;;
351;SDS011;164;50.784;6.496;2024-01-15T14:56:49;2.88;;;1.95;;
351;SDS011;164;50.784;6.496;2024-01-15T14:59:17;2.50;;;1.95;;
351;SDS011;164;50.784;6.496;2024-01-15T15:01:44;2.58;;;2.38;;
351;SDS011;164;50.784;6.496;2024-01-15T15:04:12;1.90;;;1.80;;
351;SDS011;164;50.784;6.496;2024-01-15T15:06:40;4.43;;;2.55;;
351;SDS011;164;50.784;6.496;2024-01-15T15:09:08;2.03;;;1.48;;
351;SDS011;164;50.784;6.496;2024-01-15T15:11:38;1.77;;;1.70;;
351;SDS011;164;50.784;6.496;2024-01-15T15:14:06;4.55;;;2.33;;
351;SDS011;164;50.784;6.496;2024-01-15T15:16:33;2.63;;;1.67;;
351;SDS011;164;50.784;6.496;2024-01-15T15:19:00;1.58;;;1.50;;
351;SDS011;164;50.784;6.496;2024-01-15T15:21:28;1.80;;;1.70;;
351;SDS011;164;50.784;6.496;2024-01-15T15:24:03;2.42;;;1.92;;
351;SDS011;164;50.784;6.496;2024-01-15T15:26:31;2.60;;;2.00;;
351;SDS011;164;50.784;6.496;2024-01-15T15:29:01;2.50;;;2.05;;
351;SDS011;164;50.784;6.496;2024-01-15T15:31:28;2.58;;;1.80;;
351;SDS011;164;50.784;6.496;2024-01-15T15:33:58;1.73;;;1.65;;
351;SDS011;164;50.784;6.496;2024-01-15T15:36:25;2.55;;;1.73;;
351;SDS011;164;50.784;6.496;2024-01-15T15:38:53;3.15;;;1.92;;
351;SDS011;164;50.784;6.496;2024-01-15T15:41:25;1.45;;;1.40;;
351;SDS011;164;50.784;6.496;2024-01-15T15:43:53;2.00;;;1.90;;
351;SDS011;164;50.784;6.496;2024-01-15T15:46:21;2.22;;;1.88;;
351;SDS011;164;50.784;6.496;2024-01-15T15:48:49;3.78;;;1.95;;
351;SDS011;164;50.784;6.496;2024-01-15T15:51:19;2.42;;;1.45;;
351;SDS011;164;50.784;6.496;2024-01-15T15:53:49;4.10;;;2.10;;
351;SDS011;164;50.784;6.496;2024-01-15T15:56:17;2.28;;;2.08;;
351;SDS011;164;50.784;6.496;2024-01-15T15:58:45;1.95;;;1.58;;
351;SDS011;164;50.784;6.496;2024-01-15T16:01:13;5.95;;;1.75;;
351;SDS011;164;50.784;6.496;2024-01-15T16:03:42;1.52;;;1.38;;
351;SDS011;164;50.784;6.496;2024-01-15T16:06:09;1.60;;;1.50;;
351;SDS011;164;50.784;6.496;2024-01-15T16:08:37;1.40;;;1.35;;
351;SDS011;164;50.784;6.496;2024-01-15T16:11:04;1.95;;;1.88;;
351;SDS011;164;50.784;6.496;2024-01-15T16:13:32;3.35;;;1.95;;
351;SDS011;164;50.784;6.496;2024-01-15T16:15:59;1.75;;;1.73;;
351;SDS011;164;50.784;6.496;2024-01-15T16:18:27;6.97;;;2.53;;
351;SDS011;164;50.784;6.496;2024-01-15T16:20:56;1.58;;;1.40;;
351;SDS011;164;50.784;6.496;2024-01-15T16:23:28;1.95;;;1.75;;
351;SDS011;164;50.784;6.496;2024-01-15T16:26:00;2.28;;;2.08;;
351;SDS011;164;50.784;6.496;2024-01-15T16:28:27;3.40;;;1.75;;
351;SDS011;164;50.784;6.496;2024-01-15T16:30:55;2.45;;;2.05;;
351;SDS011;164;50.784;6.496;2024-01-15T16:33:22;2.97;;;2.17;;
351;SDS011;164;50.784;6.496;2024-01-15T16:35:49;4.10;;;2.30;;
351;SDS011;164;50.784;6.496;2024-01-15T16:38:18;4.75;;;2.30;;
351;SDS011;164;50.784;6.496;2024-01-15T16:40:45;2.17;;;2.00;;
351;SDS011;164;50.784;6.496;2024-01-15T16:43:13;2.30;;;1.80;;
351;SDS011;164;50.784;6.496;2024-01-15T16:45:40;2.55;;;2.28;;